Time;durP1;ratioP1;P1;durP2;ratioP2;P2;SDS_P1;SDS_P2;PMS_P1;PMS_P2;Temp;Humidity;BMP_temperature;BMP_pressure;BME280_temperature;BME280_humidity;BME280_pressure;Samples;Min_cycle;Max_cycle;Signal;HPM_P1;HPM_P2
2023/04/19 00:00:07;;;;;;;;;17.25;16.75;;;;;21.41;37.39;101358.63;5078388;27;71232;-71
2023/04/19 00:02:33;;;;;;;;;16.75;14.75;;;;;21.39;37.40;101360.53;5078073;28;47219;-71
2023/04/19 00:04:59;;;;;;;;;17.25;17.25;;;;;21.40;37.06;101356.91;5078581;27;46013;-71
2023/04/19 00:07:25;;;;;;;;;18.50;14.25;;;;;21.38;37.06;101354.31;5077780;27;45369;-71
2023/04/19 00:09:50;;;;;;;;;20.75;18.50;;;;;21.41;37.10;101364.78;5080309;27;45536;-71
2023/04/19 00:12:15;;;;;;;;;18.00;16.50;;;;;21.39;37.63;101361.38;5075225;27;73556;-71
2023/04/19 00:14:41;;;;;;;;;15.75;14.75;;;;;21.40;37.54;101365.72;5060632;27;73976;-72
2023/04/19 00:17:06;;;;;;;;;19.00;16.00;;;;;21.37;37.13;101365.06;5079802;28;45442;-71
2023/04/19 00:19:31;;;;;;;;;21.00;16.00;;;;;21.39;37.50;101364.03;5077814;28;45662;-70
2023/04/19 00:21:57;;;;;;;;;17.25;15.50;;;;;21.34;37.14;101357.28;5075543;28;46238;-71
2023/04/19 00:24:22;;;;;;;;;21.00;15.25;;;;;21.36;36.88;101363.38;5079147;28;45496;-71
2023/04/19 00:26:48;;;;;;;;;19.75;16.00;;;;;21.35;37.02;101361.66;5074738;27;45351;-71
2023/04/19 00:29:13;;;;;;;;;17.25;15.00;;;;;21.34;37.15;101359.97;5080379;27;59763;-71
2023/04/19 00:31:39;;;;;;;;;18.00;13.25;;;;;21.33;37.26;101359.09;5074362;27;53296;-71
2023/04/19 00:34:05;;;;;;;;;17.75;16.25;;;;;21.33;36.86;101356.41;5080056;27;45260;-71
2023/04/19 00:36:30;;;;;;;;;17.00;13.75;;;;;21.33;36.74;101359.09;5075686;27;45152;-71
2023/04/19 00:38:56;;;;;;;;;17.50;14.75;;;;;21.34;37.21;101362.63;5093341;27;45527;-71
2023/04/19 00:41:21;;;;;;;;;13.25;13.25;;;;;21.31;37.09;101361.00;5074542;28;70016;-71
2023/04/19 00:43:47;;;;;;;;;13.00;13.00;;;;;21.30;37.19;101356.63;5058940;28;45295;-71
2023/04/19 00:46:13;;;;;;;;;19.25;16.25;;;;;21.31;37.18;101353.00;5076125;27;45385;-71
2023/04/19 00:48:38;;;;;;;;;21.00;16.75;;;;;21.28;37.29;101353.19;5063086;27;45496;-71
2023/04/19 00:51:04;;;;;;;;;12.75;12.50;;;;;21.31;37.48;101363.66;5076601;27;62339;-71
2023/04/19 00:53:30;;;;;;;;;14.00;12.50;;;;;21.27;36.79;101347.97;5079753;27;45386;-71
2023/04/19 00:55:56;;;;;;;;;13.00;12.50;;;;;21.28;37.21;101361.16;5076645;27;45345;-71
2023/04/19 00:58:22;;;;;;;;;18.75;13.25;;;;;21.22;37.02;101342.94;5077218;27;45716;-71
2023/04/19 01:00:47;;;;;;;;;12.75;12.75;;;;;21.27;37.28;101353.31;5074977;27;69372;-71
2023/04/19 01:03:13;;;;;;;;;15.25;13.00;;;;;21.25;37.37;101348.06;5078013;27;69327;-71
2023/04/19 01:05:38;;;;;;;;;15.50;14.25;;;;;21.24;37.17;101347.19;5073549;27;45600;-71
2023/04/19 01:08:07;;;;;;;;;15.00;15.00;;;;;21.27;37.30;101355.97;5061606;28;45370;-71
2023/04/19 01:10:32;;;;;;;;;15.00;12.50;;;;;21.26;37.17;101354.25;5078686;27;46044;-71
2023/04/19 01:12:58;;;;;;;;;15.00;12.75;;;;;21.27;37.29;101355.97;5056950;27;45257;-71
2023/04/19 01:15:23;;;;;;;;;16.00;14.00;;;;;21.23;37.53;101349.97;5055240;28;45548;-71
2023/04/19 01:17:48;;;;;;;;;16.00;16.00;;;;;21.23;37.20;101350.81;5057506;28;52486;-72
2023/04/19 01:20:14;;;;;;;;;14.00;13.50;;;;;21.20;36.63;101343.03;5056964;27;47416;-71
2023/04/19 01:22:39;;;;;;;;;15.00;11.25;;;;;21.25;37.30;101348.06;5078380;27;66718;-71
2023/04/19 01:25:06;;;;;;;;;17.75;13.75;;;;;21.21;36.92;101346.53;5076216;27;64871;-71
2023/04/19 01:27:31;;;;;;;;;13.50;12.25;;;;;21.19;37.05;101341.28;5079765;28;45413;-71
2023/04/19 01:29:57;;;;;;;;;14.75;12.25;;;;;21.17;37.16;101345.03;5077665;27;46625;-71
2023/04/19 01:32:22;;;;;;;;;17.25;14.00;;;;;21.20;37.14;101352.81;5077114;27;66677;-71
2023/04/19 01:34:48;;;;;;;;;14.00;12.00;;;;;21.20;36.88;101352.81;5075400;27;45339;-70
2023/04/19 01:37:13;;;;;;;;;14.25;12.25;;;;;21.13;36.80;101336.38;5075016;28;46294;-71
2023/04/19 01:39:39;;;;;;;;;12.50;12.00;;;;;21.19;37.26;101346.63;5077996;28;45452;-71
2023/04/19 01:42:04;;;;;;;;;13.75;10.25;;;;;21.18;37.09;101346.75;5070656;27;45338;-71
2023/04/19 01:44:29;;;;;;;;;12.25;11.75;;;;;21.19;36.63;101335.97;5074345;28;58823;-71
2023/04/19 01:46:58;;;;;;;;;13.75;10.50;;;;;21.15;37.47;101331.81;5074534;27;68079;-71
2023/04/19 01:49:23;;;;;;;;;13.25;10.00;;;;;21.13;37.32;101330.19;5089684;27;68106;-71
2023/04/19 01:51:49;;;;;;;;;14.50;11.25;;;;;21.18;36.86;101338.75;5054205;28;46119;-71
2023/04/19 01:54:14;;;;;;;;;12.75;10.00;;;;;21.13;36.93;101327.53;5080147;27;45426;-71
2023/04/19 01:56:40;;;;;;;;;12.00;11.50;;;;;21.10;36.85;101317.91;5076752;27;63165;-71
2023/04/19 01:59:05;;;;;;;;;13.25;11.25;;;;;21.13;36.98;101328.38;5077079;27;48466;-71
2023/04/19 02:01:30;;;;;;;;;10.75;10.00;;;;;21.16;37.18;101338.84;5055592;28;45536;-71
2023/04/19 02:03:56;;;;;;;;;11.50;10.00;;;;;21.14;37.36;101334.56;5078192;27;45480;-71
2023/04/19 02:06:21;;;;;;;;;12.75;10.00;;;;;21.17;37.24;101343.19;5073427;27;45506;-72
2023/04/19 02:08:47;;;;;;;;;11.00;10.00;;;;;21.16;36.77;101336.19;5076836;28;70068;-71
2023/04/19 02:11:16;;;;;;;;;10.00;9.75;;;;;21.15;37.05;101330.97;5076294;27;45385;-71
2023/04/19 02:13:42;;;;;;;;;12.00;11.50;;;;;21.15;36.79;101331.81;5078687;27;45477;-71
2023/04/19 02:16:08;;;;;;;;;10.50;10.50;;;;;21.16;37.13;101329.97;5057781;28;45539;-70
2023/04/19 02:18:37;;;;;;;;;9.75;9.75;;;;;21.16;37.01;101329.97;5061422;28;47282;-71
2023/04/19 02:21:03;;;;;;;;;11.50;11.00;;;;;21.14;37.28;101326.56;5069543;28;45467;-71
2023/04/19 02:23:28;;;;;;;;;13.50;12.00;;;;;21.13;36.98;101331.03;5077683;27;45509;-71
2023/04/19 02:25:53;;;;;;;;;10.75;8.25;;;;;21.11;37.34;101324.97;5056786;27;74022;-72
2023/04/19 02:28:19;;;;;;;;;13.50;10.75;;;;;21.12;36.97;101324.00;5057370;27;47232;-71
2023/04/19 02:30:44;;;;;;;;;9.75;8.00;;;;;21.11;37.33;101322.31;5075522;27;45612;-72
2023/04/19 02:33:09;;;;;;;;;11.50;9.75;;;;;21.11;37.45;101330.28;5075264;27;46935;-71
2023/04/19 02:35:35;;;;;;;;;9.75;8.00;;;;;21.15;36.90;101334.47;5072216;27;45566;-72
2023/04/19 02:38:02;;;;;;;;;10.00;8.75;;;;;21.05;37.44;101309.38;5076662;27;45271;-71
2023/04/19 02:40:27;;;;;;;;;13.00;10.50;;;;;21.09;37.24;101320.66;5076209;28;45418;-71
2023/04/19 02:42:52;;;;;;;;;11.00;9.75;;;;;21.10;37.42;101320.59;5077411;28;45376;-72
2023/04/19 02:45:18;;;;;;;;;10.50;10.50;;;;;21.12;37.05;101325.81;5076802;27;51042;-71
2023/04/19 02:47:45;;;;;;;;;9.75;9.00;;;;;21.08;36.79;101311.84;5077584;27;62599;-71
2023/04/19 02:50:11;;;;;;;;;10.00;8.00;;;;;21.09;37.25;101320.66;5074475;27;45534;-71
2023/04/19 02:52:36;;;;;;;;;10.50;7.75;;;;;21.10;37.45;101315.25;5074600;28;45324;-71
2023/04/19 02:55:01;;;;;;;;;10.25;9.00;;;;;21.11;37.36;101322.31;5058907;28;68363;-71
2023/04/19 02:57:27;;;;;;;;;10.50;9.00;;;;;21.12;36.92;101325.81;5078387;28;46117;-70
2023/04/19 02:59:52;;;;;;;;;10.50;8.00;;;;;21.09;37.21;101318.88;5057654;28;45526;-70
2023/04/19 03:02:18;;;;;;;;;9.50;8.75;;;;;21.12;37.06;101329.31;5076831;28;45292;-71
2023/04/19 03:04:43;;;;;;;;;8.00;8.00;;;;;21.13;37.40;101330.19;5072804;27;60432;-72
2023/04/19 03:07:09;;;;;;;;;8.25;8.25;;;;;21.11;37.27;101330.28;5077923;27;45938;-71
2023/04/19 03:09:34;;;;;;;;;10.25;10.00;;;;;21.07;37.38;101330.56;5074829;28;64265;-72
2023/04/19 03:12:00;;;;;;;;;8.50;6.00;;;;;21.10;36.95;101333.03;5075503;27;46825;-71
2023/04/19 03:14:26;;;;;;;;;8.00;7.25;;;;;21.10;37.23;101328.56;5080756;27;45465;-71
2023/04/19 03:16:51;;;;;;;;;8.25;7.50;;;;;21.10;37.29;101333.88;5063790;27;48177;-71
2023/04/19 03:19:17;;;;;;;;;10.25;10.25;;;;;21.04;37.19;101329.81;5054375;28;45777;-71
2023/04/19 03:21:42;;;;;;;;;6.00;6.00;;;;;21.10;37.47;101330.38;5068469;28;45608;-71
2023/04/19 03:24:08;;;;;;;;;11.50;9.00;;;;;21.05;37.39;101328.88;5062425;28;45494;-71
2023/04/19 03:26:33;;;;;;;;;9.25;8.75;;;;;21.02;36.91;101321.06;5078455;27;45506;-71
2023/04/19 03:28:58;;;;;;;;;8.00;8.00;;;;;21.09;37.37;101329.53;5083531;27;45590;-71
2023/04/19 03:31:24;;;;;;;;;8.25;8.00;;;;;21.05;36.87;101325.34;5072409;28;63178;-72
2023/04/19 03:33:49;;;;;;;;;9.00;8.00;;;;;21.07;37.32;101327.91;5078702;28;45541;-71
2023/04/19 03:36:15;;;;;;;;;8.00;8.00;;;;;21.07;36.90;101326.13;5080636;27;46900;-71
2023/04/19 03:38:40;;;;;;;;;9.75;9.00;;;;;21.08;37.28;101330.47;5089570;27;45535;-71
2023/04/19 03:41:19;;;;;;;;;8.25;8.25;;;;;21.09;37.31;101331.31;5058152;28;45447;-71
2023/04/19 03:43:44;;;;;;;;;10.00;9.00;;;;;21.05;37.05;101328.88;5080361;27;45365;-71
2023/04/19 03:46:09;;;;;;;;;8.00;7.00;;;;;21.07;37.10;101326.13;5076908;27;45718;-71
2023/04/19 03:48:35;;;;;;;;;8.00;7.50;;;;;21.02;37.03;101317.56;5093964;27;47532;-72
2023/04/19 03:51:00;;;;;;;;;8.00;7.50;;;;;21.02;36.89;101317.56;5075250;27;56534;-72
2023/04/19 03:53:26;;;;;;;;;12.00;9.00;;;;;21.07;37.37;101323.47;5083375;27;73282;-71
2023/04/19 03:55:51;;;;;;;;;5.75;5.75;;;;;21.07;37.01;101317.25;5057103;27;48126;-71
2023/04/19 03:58:17;;;;;;;;;10.00;8.00;;;;;21.08;37.44;101324.31;5081181;28;45252;-72
2023/04/19 04:00:42;;;;;;;;;9.50;7.00;;;;;21.05;37.28;101318.22;5074980;28;45516;-71
2023/04/19 04:03:07;;;;;;;;;10.00;8.50;;;;;21.04;37.02;101315.66;5080315;28;45672;-71
2023/04/19 04:05:33;;;;;;;;;11.25;8.50;;;;;21.06;37.32;101321.72;5077004;27;45512;-71
2023/04/19 04:07:59;;;;;;;;;10.25;8.25;;;;;21.03;37.10;101311.28;5081574;27;45338;-71
2023/04/19 04:10:24;;;;;;;;;8.00;7.50;;;;;21.01;37.32;101315.84;5058914;28;45501;-71
2023/04/19 04:12:49;;;;;;;;;7.75;6.75;;;;;21.00;37.25;101315.00;5078140;27;45682;-71
2023/04/19 04:15:15;;;;;;;;;10.75;7.75;;;;;21.03;37.30;101308.59;5061767;28;45522;-71
2023/04/19 04:17:40;;;;;;;;;10.00;9.25;;;;;21.03;37.27;101319.25;5087813;27;67916;-71
2023/04/19 04:20:07;;;;;;;;;6.00;6.00;;;;;21.04;37.27;101326.31;5082877;27;50934;-71
2023/04/19 04:22:32;;;;;;;;;10.25;8.25;;;;;20.99;37.03;101312.41;5065655;27;45515;-71
2023/04/19 04:25:00;;;;;;;;;6.50;6.50;;;;;21.04;37.17;101326.31;5070241;28;47890;-71
2023/04/19 04:27:25;;;;;;;;;9.75;8.00;;;;;21.02;37.43;101321.06;5079726;27;45342;-71
2023/04/19 04:29:51;;;;;;;;;9.25;8.00;;;;;21.02;37.15;101323.72;5064435;27;45318;-71
2023/04/19 04:32:17;;;;;;;;;8.25;7.75;;;;;21.01;37.21;101315.84;5067444;28;45572;-71
2023/04/19 04:34:43;;;;;;;;;9.00;7.00;;;;;21.03;37.49;101325.44;5081098;27;45468;-71
2023/04/19 04:37:08;;;;;;;;;7.75;7.75;;;;;21.03;37.45;101321.91;5078060;27;46196;-71
2023/04/19 04:39:38;;;;;;;;;8.75;8.00;;;;;21.01;37.38;101318.50;5081239;27;45319;-71
2023/04/19 04:42:04;;;;;;;;;8.00;8.00;;;;;21.01;37.23;101327.31;5073495;28;45366;-71
2023/04/19 04:44:29;;;;;;;;;8.00;7.00;;;;;21.01;37.46;101321.16;5055266;28;47343;-71
2023/04/19 04:46:54;;;;;;;;;7.00;7.00;;;;;21.02;37.35;101317.56;5077825;27;64528;-71
2023/04/19 04:49:20;;;;;;;;;8.00;7.50;;;;;21.01;37.34;101321.16;5063264;27;54365;-71
2023/04/19 04:51:45;;;;;;;;;10.00;8.00;;;;;21.02;37.42;101326.38;5079142;27;71925;-71
2023/04/19 04:54:10;;;;;;;;;8.25;8.25;;;;;21.02;36.96;101322.88;5067470;28;70114;-71
2023/04/19 04:56:36;;;;;;;;;8.50;7.00;;;;;20.96;37.35;101316.09;5073474;28;70779;-71
2023/04/19 04:59:01;;;;;;;;;7.75;7.00;;;;;21.01;37.11;101329.16;5072148;27;64753;-71
2023/04/19 05:01:26;;;;;;;;;8.75;7.00;;;;;21.02;37.17;101336.19;5076197;28;45403;-72
2023/04/19 05:03:52;;;;;;;;;6.25;6.25;;;;;21.00;37.20;101330.97;5080328;28;46500;-72
2023/04/19 05:06:17;;;;;;;;;8.50;6.50;;;;;20.98;37.34;101331.97;5073185;28;67145;-71
2023/04/19 05:08:43;;;;;;;;;8.00;7.25;;;;;20.98;36.86;101334.66;5079812;27;59243;-72
2023/04/19 05:11:09;;;;;;;;;8.50;7.00;;;;;20.99;37.11;101331.03;5077442;27;45612;-71
2023/04/19 05:13:34;;;;;;;;;12.00;8.00;;;;;21.00;36.96;101338.94;5076326;28;46214;-71
2023/04/19 05:16:02;;;;;;;;;10.00;7.25;;;;;20.97;37.30;101335.63;5078565;27;47130;-72
2023/04/19 05:18:27;;;;;;;;;6.00;6.00;;;;;21.00;37.35;101341.59;5078800;27;45447;-71
2023/04/19 05:20:52;;;;;;;;;6.00;6.00;;;;;20.99;37.28;101337.22;5076859;28;45363;-71
2023/04/19 05:23:18;;;;;;;;;8.25;6.25;;;;;20.98;37.18;101330.19;5079415;27;47550;-71
2023/04/19 05:25:43;;;;;;;;;7.25;6.50;;;;;21.01;37.58;101335.31;5067900;28;45481;-71
2023/04/19 05:28:09;;;;;;;;;7.00;6.75;;;;;20.99;37.66;101336.38;5081658;27;45589;-71
2023/04/19 05:30:34;;;;;;;;;11.75;7.00;;;;;21.01;37.59;101343.28;5059268;28;45349;-70
2023/04/19 05:33:00;;;;;;;;;9.25;8.00;;;;;20.99;37.13;101339.88;5081794;27;45505;-71
2023/04/19 05:35:25;;;;;;;;;7.00;6.00;;;;;21.00;37.01;101346.03;5074466;27;45469;-67
2023/04/19 05:37:51;;;;;;;;;10.25;8.25;;;;;21.07;37.06;101355.41;5081571;27;45485;-74
2023/04/19 05:40:16;;;;;;;;;12.25;10.25;;;;;21.09;37.64;101363.25;5074562;28;45537;-73
2023/04/19 05:42:42;;;;;;;;;8.50;8.25;;;;;21.09;37.64;101365.91;5079185;27;47079;-72
2023/04/19 05:45:08;;;;;;;;;11.25;10.25;;;;;21.04;37.46;101353.75;5080232;27;45231;-73
2023/04/19 05:47:33;;;;;;;;;11.25;10.00;;;;;21.09;36.99;101357.94;5079247;28;45339;-71
2023/04/19 05:49:59;;;;;;;;;13.50;12.00;;;;;21.10;36.88;101359.66;5078087;28;45412;-72
2023/04/19 05:52:24;;;;;;;;;14.50;12.75;;;;;21.10;37.05;101363.16;5061199;28;47990;-72
2023/04/19 05:54:49;;;;;;;;;15.50;14.00;;;;;21.08;36.84;101365.06;5059234;28;45480;-72
2023/04/19 05:57:15;;;;;;;;;14.50;12.75;;;;;21.05;37.17;101363.47;5063447;28;45319;-73
2023/04/19 05:59:41;;;;;;;;;17.00;13.00;;;;;21.09;36.96;101372.13;5075103;27;45339;-73
2023/04/19 06:02:06;;;;;;;;;15.75;12.50;;;;;21.11;37.05;101372.03;5058283;28;47672;-72
2023/04/19 06:04:32;;;;;;;;;14.50;12.00;;;;;21.11;37.04;101385.34;5077470;27;67234;-74
2023/04/19 06:06:57;;;;;;;;;13.25;11.00;;;;;21.12;37.15;101376.38;5077642;27;45430;-75
2023/04/19 06:09:22;;;;;;;;;18.50;13.00;;;;;21.10;37.06;101372.97;5083515;27;58130;-72
2023/04/19 06:11:48;;;;;;;;;14.75;12.75;;;;;21.09;36.97;101377.44;5082890;27;45512;-74
2023/04/19 06:14:13;;;;;;;;;15.75;15.00;;;;;21.10;36.79;101376.47;5077039;27;45549;-69
2023/04/19 06:16:39;;;;;;;;;15.50;12.25;;;;;21.13;36.37;101370.13;5076054;28;45490;-74
2023/04/19 06:19:06;;;;;;;;;13.00;11.00;;;;;21.10;36.58;101376.47;5079194;28;45465;-70
2023/04/19 06:21:32;;;;;;;;;10.75;9.75;;;;;21.13;36.57;101372.78;5055217;28;47319;-70
2023/04/19 06:23:57;;;;;;;;;13.00;9.75;;;;;21.11;36.89;101372.03;5055967;27;45319;-69
2023/04/19 06:26:22;;;;;;;;;12.25;9.25;;;;;21.17;36.84;101376.97;5076288;28;50413;-69
2023/04/19 06:28:48;;;;;;;;;11.50;8.50;;;;;21.20;36.98;101385.63;5078767;27;45412;-67
2023/04/19 06:31:13;;;;;;;;;11.50;8.75;;;;;21.15;36.82;101370.88;5073598;27;47350;-66
2023/04/19 06:33:38;;;;;;;;;9.25;9.25;;;;;21.23;36.98;101387.25;5070526;27;61656;-64
2023/04/19 06:36:04;;;;;;;;;11.25;9.00;;;;;21.26;36.68;101386.19;5058497;28;45456;-65
2023/04/19 06:38:30;;;;;;;;;7.50;7.25;;;;;21.27;36.94;101388.75;5081710;27;45641;-66
2023/04/19 06:40:55;;;;;;;;;9.50;9.50;;;;;21.32;36.67;101386.66;5073778;27;45897;-66
2023/04/19 06:43:21;;;;;;;;;10.75;8.00;;;;;21.31;36.71;101381.44;5076211;28;45528;-71
2023/04/19 06:45:47;;;;;;;;;9.75;8.75;;;;;21.37;37.29;101392.56;5056002;28;45367;-70
2023/04/19 06:48:12;;;;;;;;;9.50;8.50;;;;;21.40;37.22;101389.69;5074917;28;62477;-67
2023/04/19 06:50:38;;;;;;;;;11.75;9.00;;;;;21.46;37.26;101399.16;5072039;27;45735;-67
2023/04/19 06:53:03;;;;;;;;;8.75;6.50;;;;;21.48;36.93;101399.94;5058732;28;45326;-69
2023/04/19 06:55:28;;;;;;;;;10.25;9.00;;;;;21.50;37.35;101400.69;5052462;28;60865;-69
2023/04/19 06:57:54;;;;;;;;;10.00;8.00;;;;;21.53;37.07;101396.94;5076962;27;45614;-70
2023/04/19 07:00:21;;;;;;;;;9.75;7.75;;;;;21.55;37.13;101400.41;5076921;27;47984;-75
2023/04/19 07:02:46;;;;;;;;;9.50;7.00;;;;;21.59;36.95;101402.75;5076689;27;45326;-69
2023/04/19 07:05:12;;;;;;;;;9.00;7.50;;;;;21.57;37.48;101394.00;5065954;27;45449;-73
2023/04/19 07:07:40;;;;;;;;;8.25;7.50;;;;;21.64;36.92;101405.16;5073701;27;45478;-69
2023/04/19 07:10:06;;;;;;;;;7.25;7.25;;;;;21.64;37.06;101391.81;5055073;27;47397;-73
2023/04/19 07:12:32;;;;;;;;;8.50;7.75;;;;;21.70;37.58;101390.56;5080162;27;45843;-74
2023/04/19 07:14:57;;;;;;;;;8.00;7.00;;;;;21.65;36.94;101376.69;5076003;27;45330;-73
2023/04/19 07:17:22;;;;;;;;;7.00;6.75;;;;;21.70;37.44;101386.09;5076457;27;68297;-74
2023/04/19 07:19:48;;;;;;;;;7.00;7.00;;;;;21.66;37.41;101381.06;5078148;27;46389;-72
2023/04/19 07:22:13;;;;;;;;;7.25;7.25;;;;;21.74;37.09;101395.63;5081661;27;45359;-73
2023/04/19 07:24:40;;;;;;;;;9.25;7.75;;;;;21.75;37.23;101396.47;5060733;28;45430;-73
2023/04/19 07:27:09;;;;;;;;;8.50;7.75;;;;;21.76;37.33;101390.16;5074292;28;45315;-73
2023/04/19 07:29:34;;;;;;;;;6.50;6.50;;;;;21.76;36.91;101391.03;5073187;27;46729;-73
2023/04/19 07:32:00;;;;;;;;;9.50;7.50;;;;;21.82;37.22;101407.59;5072451;27;45244;-73
2023/04/19 07:34:26;;;;;;;;;6.50;6.50;;;;;21.83;37.41;101407.47;5068487;28;45338;-73
2023/04/19 07:36:51;;;;;;;;;9.50;7.00;;;;;21.83;37.10;101403.97;5067275;27;45536;-73
2023/04/19 07:39:16;;;;;;;;;7.25;7.25;;;;;21.84;37.62;101406.53;5080367;27;51546;-73
2023/04/19 07:41:43;;;;;;;;;9.00;8.00;;;;;21.85;37.09;101404.72;5072028;27;65124;-73
2023/04/19 07:44:10;;;;;;;;;8.50;6.50;;;;;21.83;37.26;101401.31;5071937;27;45299;-74
2023/04/19 07:46:35;;;;;;;;;7.00;7.00;;;;;21.87;37.09;101402.81;5050178;27;45446;-74
2023/04/19 07:49:01;;;;;;;;;8.75;7.00;;;;;21.89;37.44;101401.78;5042840;28;48163;-74
2023/04/19 07:51:26;;;;;;;;;7.25;6.00;;;;;21.88;36.70;101404.53;5054021;28;45406;-74
2023/04/19 07:53:52;;;;;;;;;5.50;5.50;;;;;21.93;37.51;101407.75;5060180;28;45230;-74
2023/04/19 07:56:18;;;;;;;;;7.00;6.25;;;;;21.90;37.40;101399.94;5069213;28;45418;-73
2023/04/19 07:58:44;;;;;;;;;6.50;6.50;;;;;21.88;37.26;101391.19;5057844;28;47138;-73
2023/04/19 08:01:10;;;;;;;;;10.00;5.50;;;;;21.94;36.89;101406.81;5053345;28;45560;-74
2023/04/19 08:03:36;;;;;;;;;8.75;6.25;;;;;21.95;37.28;101403.19;5072198;27;45489;-74
2023/04/19 08:06:04;;;;;;;;;6.25;6.25;;;;;21.97;37.46;101404.81;5063068;28;45413;-74
2023/04/19 08:08:29;;;;;;;;;9.25;7.25;;;;;21.97;36.98;101407.47;5067094;27;46074;-73
2023/04/19 08:10:55;;;;;;;;;10.00;10.00;;;;;21.97;37.18;101395.94;5054055;28;45379;-70
2023/04/19 08:13:20;;;;;;;;;6.50;5.75;;;;;21.98;36.97;101397.66;5071492;28;45382;-71
2023/04/19 08:15:46;;;;;;;;;7.75;7.00;;;;;22.00;37.13;101401.06;5069183;27;45362;-75
2023/04/19 08:18:11;;;;;;;;;9.50;6.75;;;;;22.00;36.88;101396.59;5078848;27;45582;-76
2023/04/19 08:20:36;;;;;;;;;9.00;6.75;;;;;22.04;37.37;101401.72;5079964;27;53422;-76
2023/04/19 08:23:02;;;;;;;;;6.75;6.75;;;;;22.06;37.21;101399.81;5082885;27;45298;-75
2023/04/19 08:25:27;;;;;;;;;6.25;6.25;;;;;22.05;37.39;101390.13;5074313;27;45698;-75
2023/04/19 08:27:54;;;;;;;;;9.00;7.00;;;;;22.10;37.28;101396.03;5082699;28;45532;-74
2023/04/19 08:30:19;;;;;;;;;6.25;6.25;;;;;22.05;37.08;101382.13;5054061;27;45478;-76
2023/04/19 08:32:45;;;;;;;;;7.75;6.75;;;;;22.12;37.39;101397.63;5060329;28;45587;-72
2023/04/19 08:35:10;;;;;;;;;8.00;6.50;;;;;22.08;37.15;101387.25;5062271;27;57717;-74
2023/04/19 08:37:35;;;;;;;;;7.25;6.25;;;;;22.11;36.98;101390.56;5081616;28;46110;-71
2023/04/19 08:40:01;;;;;;;;;8.00;7.25;;;;;22.16;37.16;101388.44;5079866;27;65498;-71
2023/04/19 08:42:26;;;;;;;;;7.50;7.00;;;;;22.19;37.61;101395.41;5086287;27;45936;-75
2023/04/19 08:44:51;;;;;;;;;10.00;8.75;;;;;22.19;37.09;101384.75;5085666;27;45560;-77
2023/04/19 08:47:18;;;;;;;;;8.50;8.00;;;;;22.21;37.35;101389.97;5079313;27;45737;-75
2023/04/19 08:49:44;;;;;;;;;8.75;6.75;;;;;22.21;37.60;101393.50;5079030;27;45851;-73
2023/04/19 08:52:12;;;;;;;;;7.50;6.75;;;;;22.25;37.04;101391.47;5061389;28;45574;-72
2023/04/19 08:54:37;;;;;;;;;8.00;7.00;;;;;22.26;37.28;101395.88;5076814;27;45474;-69
2023/04/19 08:57:04;;;;;;;;;10.25;6.50;;;;;22.27;37.61;101389.59;5059279;28;47328;-73
2023/04/19 08:59:32;;;;;;;;;9.25;6.00;;;;;22.28;37.43;101393.97;5092052;27;45370;-72
2023/04/19 09:01:59;;;;;;;;;6.00;6.00;;;;;22.29;37.55;101393.00;5080639;27;45453;-67
2023/04/19 09:04:25;;;;;;;;;8.00;6.00;;;;;22.28;37.22;101383.31;5083731;27;49087;-73
2023/04/19 09:06:50;;;;;;;;;8.00;6.00;;;;;22.32;37.30;101395.47;5071011;27;53311;-71
2023/04/19 09:09:20;;;;;;;;;8.00;5.75;;;;;22.34;37.42;101404.22;5070752;28;65842;-71
2023/04/19 09:11:45;;;;;;;;;8.25;7.75;;;;;22.35;37.14;101392.63;5079084;27;45493;-71
2023/04/19 09:14:12;;;;;;;;;7.25;7.00;;;;;22.37;37.32;101391.56;5081464;28;45347;-73
2023/04/19 09:16:38;;;;;;;;;6.25;6.25;;;;;22.37;37.17;101391.56;5055262;28;47846;-72
2023/04/19 09:19:04;;;;;;;;;5.00;5.00;;;;;22.40;37.61;101384.28;5087260;27;45315;-72
2023/04/19 09:21:31;;;;;;;;;5.25;5.25;;;;;22.39;37.23;101388.78;5091136;27;45536;-72
2023/04/19 09:23:56;;;;;;;;;7.75;6.50;;;;;22.40;37.49;101384.28;5079773;27;45382;-69
2023/04/19 09:26:22;;;;;;;;;6.25;6.25;;;;;22.41;37.32;101384.19;5078154;27;46329;-70
2023/04/19 09:28:59;;;;;;;;;7.00;5.25;;;;;22.46;37.30;101378.56;5066724;28;45409;-69
2023/04/19 09:31:26;;;;;;;;;5.50;4.75;;;;;22.49;37.76;101387.22;5057739;28;45509;-70
2023/04/19 09:33:53;;;;;;;;;5.50;5.50;;;;;22.50;37.29;101386.25;5082695;27;45308;-69
2023/04/19 09:36:31;;;;;;;;;6.25;6.00;;;;;22.53;37.79;101377.19;5081052;27;45576;-70
2023/04/19 09:38:58;;;;;;;;;8.00;5.00;;;;;22.52;37.29;101371.03;5079131;27;45090;-70
2023/04/19 09:41:24;;;;;;;;;6.50;5.25;;;;;22.50;37.25;101358.72;5067166;28;45499;-68
2023/04/19 09:43:50;;;;;;;;;6.00;5.75;;;;;22.55;37.54;101369.94;5082735;27;45416;-69
2023/04/19 09:46:35;;;;;;;;;8.00;6.50;;;;;22.55;37.27;101370.78;5070233;28;45557;-74
2023/04/19 09:49:16;;;;;;;;;6.00;5.25;;;;;22.58;37.53;101372.41;5077930;28;45408;-74
2023/04/19 09:51:43;;;;;;;;;11.75;7.00;;;;;22.55;37.60;101365.44;5072976;27;45404;-69
2023/04/19 09:54:09;;;;;;;;;8.00;8.00;;;;;22.56;37.55;101355.66;5082283;27;45397;-68
2023/04/19 09:56:35;;;;;;;;;9.75;7.00;;;;;22.60;37.37;101366.97;5072757;28;45595;-69
2023/04/19 09:59:05;;;;;;;;;6.75;5.00;;;;;22.62;37.16;101359.72;5073356;28;45466;-71
2023/04/19 10:01:57;;;;;;;;;7.50;7.00;;;;;22.59;37.30;101357.25;5076254;27;45496;-71
2023/04/19 10:04:24;;;;;;;;;9.50;5.50;;;;;22.60;37.63;101346.47;5069060;27;45482;-71
2023/04/19 10:06:51;;;;;;;;;7.25;6.75;;;;;22.60;37.76;101348.31;5073638;27;46314;-68
2023/04/19 10:09:17;;;;;;;;;4.50;4.50;;;;;22.60;37.44;101348.31;5080618;27;45825;-68
2023/04/19 10:11:48;;;;;;;;;10.25;6.50;;;;;22.62;37.34;101354.38;5060423;27;45237;-69
2023/04/19 10:14:15;;;;;;;;;8.75;6.25;;;;;22.59;37.43;101352.75;5075846;28;45347;-68
2023/04/19 10:16:40;;;;;;;;;6.75;6.25;;;;;22.59;37.32;101351.91;5072016;27;46043;-70
2023/04/19 10:19:11;;;;;;;;;5.75;5.75;;;;;22.60;37.51;101343.81;5085761;27;52262;-68
2023/04/19 10:21:37;;;;;;;;;9.00;7.50;;;;;22.59;37.37;101338.56;5074450;27;45547;-68
2023/04/19 10:24:03;;;;;;;;;8.50;7.00;;;;;22.59;37.23;101336.75;5061164;28;45494;-70
2023/04/19 10:26:28;;;;;;;;;7.75;7.00;;;;;22.61;37.43;101347.31;5071310;28;46439;-70
2023/04/19 10:28:57;;;;;;;;;7.75;7.25;;;;;22.58;37.14;101336.88;5089581;27;64957;-70
2023/04/19 10:31:25;;;;;;;;;9.25;5.75;;;;;22.60;37.50;101335.81;5083889;27;45468;-71
2023/04/19 10:33:50;;;;;;;;;7.00;7.00;;;;;22.61;37.08;101337.53;5081223;27;45492;-70
2023/04/19 10:36:16;;;;;;;;;7.50;7.00;;;;;22.59;37.62;101339.41;5074403;28;46884;-70
2023/04/19 10:38:47;;;;;;;;;9.50;7.25;;;;;22.59;37.07;101328.75;5075645;28;45303;-71
2023/04/19 10:41:14;;;;;;;;;10.00;5.50;;;;;22.61;37.29;101332.19;5063686;28;45508;-76
2023/04/19 10:43:42;;;;;;;;;10.00;6.75;;;;;22.61;37.57;101333.97;5063602;28;45473;-72
2023/04/19 10:46:09;;;;;;;;;8.00;7.75;;;;;22.60;37.61;101332.28;5080288;27;45734;-73
2023/04/19 10:48:39;;;;;;;;;7.50;6.75;;;;;22.60;37.46;101326.97;5081757;27;45992;-73
2023/04/19 10:51:15;;;;;;;;;6.75;5.25;;;;;22.60;37.63;101334.97;5075142;27;45488;-68
2023/04/19 10:53:51;;;;;;;;;6.00;6.00;;;;;22.56;37.50;101326.31;5075529;27;45615;-69
2023/04/19 10:56:32;;;;;;;;;8.00;6.00;;;;;22.59;37.56;101327.91;5072044;28;48124;-71
2023/04/19 10:59:00;;;;;;;;;8.50;6.00;;;;;22.58;37.08;101326.22;5077709;28;45220;-79
2023/04/19 11:01:44;;;;;;;;;8.25;6.50;;;;;22.56;37.33;101329.81;5080287;27;45404;-69
2023/04/19 11:04:21;;;;;;;;;6.25;6.25;;;;;22.55;37.12;101314.78;5076640;27;45578;-74
2023/04/19 11:06:53;;;;;;;;;17.75;15.75;;;;;22.55;37.23;101316.59;5073846;27;45591;-73
2023/04/19 11:09:44;;;;;;;;;22.50;19.25;;;;;22.55;37.50;101322.78;5079122;27;45449;-72
2023/04/19 11:12:12;;;;;;;;;39.75;32.50;;;;;22.50;37.28;101303.56;5064260;27;45365;-80
2023/04/19 11:14:45;;;;;;;;;39.00;33.25;;;;;22.55;37.50;101314.78;5058679;28;45577;-75